createdAt,value
2019-03-15T00:02:07.303Z,1.83
2019-03-15T00:07:10.973Z,1.67
2019-03-15T00:12:17.177Z,2.20
2019-03-15T00:17:20.878Z,2.20
2019-03-15T00:22:24.563Z,2.53
2019-03-15T00:27:28.542Z,2.33
2019-03-15T00:32:33.302Z,2.13
2019-03-15T00:37:37.079Z,2.30
2019-03-15T00:42:40.773Z,2.30
2019-03-15T00:47:44.446Z,2.47
2019-03-15T00:52:48.129Z,2.40
2019-03-15T00:57:51.805Z,2.13
2019-03-15T01:02:55.488Z,2.20
2019-03-15T01:07:59.454Z,1.83
2019-03-15T01:13:03.166Z,2.10
2019-03-15T01:18:06.863Z,2.10
2019-03-15T01:23:10.789Z,2.23
2019-03-15T01:28:14.486Z,2.13
2019-03-15T01:33:18.167Z,2.20
2019-03-15T01:38:24.006Z,1.97
2019-03-15T01:43:27.680Z,2.30
2019-03-15T01:48:31.621Z,2.17
2019-03-15T01:53:35.313Z,1.73
2019-03-15T01:58:46.812Z,2.30
2019-03-15T02:03:50.486Z,2.13
2019-03-15T02:08:54.175Z,2.30
2019-03-15T02:13:57.824Z,2.13
2019-03-15T02:19:01.482Z,1.83
2019-03-15T02:24:05.158Z,2.13
2019-03-15T02:29:08.828Z,2.03
2019-03-15T02:34:12.504Z,2.20
2019-03-15T02:39:16.172Z,2.47
2019-03-15T02:44:19.844Z,2.10
2019-03-15T02:49:23.543Z,2.23
2019-03-15T02:54:27.423Z,2.10
2019-03-15T02:59:31.359Z,2.20
2019-03-15T03:04:35.030Z,2.20
2019-03-15T03:09:38.705Z,2.30
2019-03-15T03:14:42.395Z,2.20
2019-03-15T03:19:46.297Z,2.10
2019-03-15T03:24:50.930Z,2.10
2019-03-15T03:29:54.852Z,1.43
2019-03-15T03:34:58.556Z,1.80
2019-03-15T03:40:02.614Z,1.77
2019-03-15T03:45:06.722Z,2.00
2019-03-15T03:50:10.780Z,1.67
2019-03-15T03:55:14.463Z,1.63
2019-03-15T04:00:18.460Z,1.70
2019-03-15T04:05:23.500Z,1.73
2019-03-15T04:10:27.164Z,1.90
2019-03-15T04:15:30.826Z,1.80
2019-03-15T04:20:34.493Z,1.70
2019-03-15T04:25:40.541Z,1.70
2019-03-15T04:30:43.953Z,1.50
2019-03-15T04:35:47.782Z,1.37
2019-03-15T04:41:35.791Z,1.43
2019-03-15T04:46:39.490Z,1.40
2019-03-15T04:51:43.152Z,1.63
2019-03-15T04:56:46.808Z,1.37
2019-03-15T05:01:50.541Z,1.30
2019-03-15T05:06:56.465Z,1.73
2019-03-15T05:11:59.577Z,0.87
2019-03-15T05:17:03.500Z,1.10
2019-03-15T05:22:07.181Z,1.00
2019-03-15T05:27:13.044Z,0.90
2019-03-15T05:32:16.725Z,1.07
2019-03-15T05:37:20.388Z,0.93
2019-03-15T05:42:24.059Z,1.07
2019-03-15T05:47:27.808Z,1.30
2019-03-15T05:52:31.498Z,1.00
2019-03-15T05:57:35.131Z,1.57
2019-03-15T06:02:39.375Z,1.23
2019-03-15T06:07:45.201Z,1.27
2019-03-15T06:12:49.130Z,1.23
2019-03-15T06:17:52.945Z,1.37
2019-03-15T06:22:56.608Z,1.27
2019-03-15T06:28:00.292Z,1.37
2019-03-15T06:33:03.952Z,1.33
2019-03-15T06:38:07.628Z,1.00
2019-03-15T06:43:13.306Z,1.20
2019-03-15T06:48:16.789Z,1.17
2019-03-15T06:53:20.481Z,2.10
2019-03-15T06:58:24.179Z,1.40
2019-03-15T07:03:28.957Z,1.30
2019-03-15T07:08:32.657Z,1.20
2019-03-15T07:13:36.307Z,1.67
2019-03-15T07:18:39.972Z,1.97
2019-03-15T07:23:43.883Z,1.83
2019-03-15T07:28:47.533Z,1.80
2019-03-15T07:33:51.220Z,1.50
2019-03-15T07:38:54.944Z,1.50
2019-03-15T07:43:58.929Z,1.70
2019-03-15T07:49:03.697Z,1.70
2019-03-15T07:54:07.370Z,1.60
2019-03-15T07:59:11.089Z,1.23
2019-03-15T08:04:17.130Z,1.70
2019-03-15T08:09:20.229Z,1.63
2019-03-15T08:14:23.889Z,2.00
2019-03-15T08:19:27.548Z,1.70
2019-03-15T08:24:31.196Z,2.10
2019-03-15T08:29:34.891Z,2.43
2019-03-15T08:34:38.537Z,2.40
2019-03-15T08:39:42.290Z,13.40
2019-03-15T08:44:45.921Z,3.70
2019-03-15T08:49:49.878Z,3.63
2019-03-15T08:55:04.568Z,3.20
2019-03-15T08:59:58.932Z,3.60
2019-03-15T09:05:02.585Z,2.90
2019-03-15T09:10:06.667Z,3.40
2019-03-15T09:15:10.582Z,3.30
2019-03-15T09:20:14.803Z,3.77
2019-03-15T09:25:20.473Z,2.40
2019-03-15T09:30:24.565Z,2.87
2019-03-15T09:35:28.559Z,2.80
2019-03-15T09:40:32.204Z,2.63
2019-03-15T09:45:35.872Z,2.27
2019-03-15T09:50:50.725Z,3.13
2019-03-15T09:55:44.892Z,3.30
2019-03-15T10:00:48.571Z,3.33
2019-03-15T10:05:52.247Z,3.40
2019-03-15T10:10:55.912Z,3.60
2019-03-15T10:15:59.582Z,3.17
2019-03-15T10:21:03.250Z,3.60
2019-03-15T10:26:08.697Z,3.30
2019-03-15T10:31:12.379Z,3.17
2019-03-15T10:36:16.036Z,2.97
2019-03-15T10:41:19.698Z,2.97
2019-03-15T10:46:23.345Z,3.10
2019-03-15T10:51:27.296Z,3.60
2019-03-15T10:56:31.315Z,3.27
2019-03-15T11:01:34.998Z,9.37
2019-03-15T11:06:41.669Z,3.17
2019-03-15T11:11:45.365Z,3.17
2019-03-15T11:16:49.037Z,10.60
2019-03-15T11:21:52.929Z,6.10
2019-03-15T11:26:56.589Z,4.13
2019-03-15T11:32:00.284Z,8.20
2019-03-15T11:37:09.714Z,9.30
2019-03-15T11:42:14.936Z,16.10
2019-03-15T11:47:18.971Z,11.13
2019-03-15T11:52:22.707Z,19.13
2019-03-15T11:57:26.382Z,9.17
2019-03-15T12:02:30.247Z,5.27
2019-03-15T12:07:35.161Z,4.40
2019-03-15T12:12:38.822Z,4.57
2019-03-15T12:17:42.548Z,3.80
2019-03-15T12:22:46.211Z,7.00
2019-03-15T12:27:49.883Z,3.83
2019-03-15T12:32:57.887Z,3.70
2019-03-15T12:38:01.881Z,3.70
2019-03-15T12:43:05.976Z,3.70
2019-03-15T12:48:09.711Z,3.63
2019-03-15T12:53:14.076Z,4.00
2019-03-15T12:58:17.727Z,3.70
2019-03-15T13:03:21.469Z,4.87
2019-03-15T13:08:25.628Z,3.77
2019-03-15T13:13:29.284Z,4.70
2019-03-15T13:18:33.206Z,4.13
2019-03-15T13:23:36.902Z,4.03
2019-03-15T13:28:40.623Z,3.80
2019-03-15T13:33:44.337Z,3.83
2019-03-15T13:38:47.976Z,3.90
2019-03-15T13:43:51.633Z,4.30
2019-03-15T13:48:55.566Z,4.77
2019-03-15T13:54:00.739Z,4.47
2019-03-15T13:59:04.451Z,4.17
2019-03-15T14:04:08.207Z,4.60
2019-03-15T14:09:11.935Z,3.93
2019-03-15T14:14:15.633Z,4.60
2019-03-15T14:19:23.484Z,3.80
2019-03-15T14:24:27.145Z,4.30
2019-03-15T14:29:30.827Z,4.60
2019-03-15T14:34:34.528Z,6.87
2019-03-15T14:39:38.451Z,4.87
2019-03-15T14:44:42.553Z,6.03
2019-03-15T14:49:49.569Z,5.50
2019-03-15T14:54:53.345Z,5.50
2019-03-15T14:59:57.021Z,5.20
2019-03-15T15:05:16.025Z,5.22
2019-03-15T15:10:21.431Z,5.43
2019-03-15T15:15:25.365Z,5.40
2019-03-15T15:20:29.421Z,5.73
2019-03-15T15:25:42.364Z,5.17
2019-03-15T15:30:51.860Z,6.20
2019-03-15T15:35:55.880Z,4.33
2019-03-15T15:41:00.812Z,5.10
2019-03-15T15:46:04.480Z,4.30
2019-03-15T15:51:08.692Z,4.17
2019-03-15T15:56:13.427Z,4.30
2019-03-15T16:01:17.195Z,3.73
2019-03-15T16:06:20.898Z,3.90
2019-03-15T16:11:37.951Z,4.33
2019-03-15T16:16:41.637Z,4.00
2019-03-15T16:21:45.288Z,3.33
2019-03-15T16:26:49.247Z,3.30
2019-03-15T16:31:53.052Z,3.43
2019-03-15T16:36:57.105Z,2.90
2019-03-15T16:42:00.769Z,2.70
2019-03-15T16:47:04.565Z,2.30
2019-03-15T16:52:08.238Z,2.30
2019-03-15T16:57:12.080Z,4.63
2019-03-15T17:02:16.424Z,1.40
2019-03-15T17:07:20.427Z,1.37
2019-03-15T17:12:25.492Z,1.80
2019-03-15T17:17:29.201Z,4.17
2019-03-15T17:22:32.960Z,3.73
2019-03-15T17:27:36.619Z,1.00
2019-03-15T17:32:42.437Z,1.00
2019-03-15T17:37:46.236Z,0.97
2019-03-15T17:42:52.002Z,0.90
2019-03-15T17:47:55.698Z,1.27
2019-03-15T17:52:59.736Z,1.30
2019-03-15T17:58:03.644Z,3.00
2019-03-15T18:03:19.762Z,1.70
2019-03-15T18:08:14.384Z,1.20
2019-03-15T18:13:18.090Z,1.50
2019-03-15T18:18:21.944Z,1.10
2019-03-15T18:23:25.671Z,1.30
2019-03-15T18:28:29.629Z,1.20
2019-03-15T18:33:33.334Z,1.17
2019-03-15T18:39:15.380Z,1.30
2019-03-15T18:44:19.319Z,1.27
2019-03-15T18:49:31.135Z,1.10
2019-03-15T18:54:37.784Z,1.10
2019-03-15T18:59:40.591Z,1.37
2019-03-15T19:04:44.344Z,1.20
2019-03-15T19:09:48.006Z,1.30
2019-03-15T19:14:51.661Z,1.37
2019-03-15T19:19:55.391Z,1.70
2019-03-15T19:24:59.357Z,1.20
2019-03-15T19:30:03.612Z,1.33
2019-03-15T19:35:08.178Z,1.43
2019-03-15T19:40:12.499Z,1.40
2019-03-15T19:45:16.204Z,1.60
2019-03-15T19:50:19.936Z,1.60
2019-03-15T19:55:23.636Z,1.33
2019-03-15T20:00:27.386Z,1.40
2019-03-15T20:05:31.023Z,1.40
2019-03-15T20:10:35.247Z,1.40
2019-03-15T20:15:38.888Z,1.60
2019-03-15T20:20:43.514Z,1.60
2019-03-15T20:25:47.497Z,1.67
2019-03-15T20:30:52.425Z,2.37
2019-03-15T20:35:56.216Z,1.63
2019-03-15T20:40:59.860Z,2.07
2019-03-15T20:46:03.593Z,2.10
2019-03-15T20:51:07.252Z,1.93
2019-03-15T20:56:11.301Z,1.93
2019-03-15T21:01:14.974Z,2.10
2019-03-15T21:06:18.653Z,2.30
2019-03-15T21:11:22.313Z,1.80
2019-03-15T21:16:28.355Z,2.03
2019-03-15T21:21:31.481Z,1.90
2019-03-15T21:26:35.177Z,2.40
2019-03-15T21:31:38.897Z,2.10
2019-03-15T21:36:42.560Z,2.30
2019-03-15T21:41:46.196Z,1.97
2019-03-15T21:46:50.156Z,2.40
2019-03-15T21:51:53.796Z,2.37
2019-03-15T21:56:57.486Z,2.20
2019-03-15T22:02:01.316Z,2.30
2019-03-15T22:07:04.964Z,2.40
2019-03-15T22:12:08.604Z,2.20
2019-03-15T22:17:12.360Z,2.27
2019-03-15T22:22:16.008Z,2.40
2019-03-15T22:27:21.831Z,2.10
2019-03-15T22:32:25.498Z,2.40
2019-03-15T22:37:29.165Z,2.50
2019-03-15T22:42:33.155Z,2.20
2019-03-15T22:47:36.868Z,2.40
2019-03-15T22:52:40.522Z,2.50
2019-03-15T22:57:44.194Z,2.40
2019-03-15T23:02:47.949Z,2.30
2019-03-15T23:07:51.632Z,2.10
2019-03-15T23:12:55.276Z,2.10
2019-03-15T23:17:59.460Z,2.83
2019-03-15T23:23:07.551Z,2.50
2019-03-15T23:28:11.212Z,2.37
2019-03-15T23:33:15.209Z,2.53
2019-03-15T23:38:18.867Z,2.60
2019-03-15T23:43:22.500Z,2.67
2019-03-15T23:48:26.153Z,2.47
2019-03-15T23:53:29.790Z,2.50
2019-03-15T23:58:33.458Z,2.23
